Ever Develop — 3FLF8 — position and weather

sailwx.info

Track history (hours):
 
Tides and Currents Weather Stations Pressure Air Temp Water Temp Dewpoint Dewpoint Depression Visibility Wind Speed Wind Dir Waves Ship Positions

Ever Develop

Last reported at 2014-Dec-18 21:30 UTC. Time now 2014-Dec-20 00:54 UTC.
Position N 23°42' E 118°30'.

Type: Ship (hazmat cat D). MMSI: 356391000.

Date/timePositionNaut miles runAvg speedWind from/ knotsBaromVisibWave heightAir tempDewpointWater temp
2014-Dec-18 21:30N 23°42' E 118°30'24212.5
2014-Dec-18 02:06N 22°34' E 114°17'1 2.3
2014-Dec-18 01:33N 22°34' E 114°16'0 0.0
2014-Dec-17 22:22N 22°34' E 114°16'0 0.0
2014-Dec-17 21:28N 22°34' E 114°16'0 0.0
2014-Dec-17 17:22N 22°34' E 114°16'0 0.0
2014-Dec-17 16:31N 22°34' E 114°16'14 2.4
2014-Dec-17 10:30N 22°26' E 114°28'1313.3
2014-Dec-17 09:33N 22°13' E 114°28'1312.7
2014-Dec-17 08:32N 22°07' E 114°15'1212.3
2014-Dec-17 07:34N 22°16' E 114°06'4 3.7
2014-Dec-17 06:33N 22°20' E 114°08'0 0.0
2014-Dec-17 05:33N 22°20' E 114°08'0 0.0
2014-Dec-17 04:33N 22°20' E 114°08'0 0.0
2014-Dec-17 03:33N 22°20' E 114°08'0 0.0
2014-Dec-17 02:30N 22°20' E 114°08'0 0.0
2014-Dec-17 01:33N 22°20' E 114°08'0 0.0
2014-Dec-17 00:33N 22°20' E 114°08'0 0.0
2014-Dec-16 23:30N 22°20' E 114°08'0 0.0
2014-Dec-16 22:24N 22°20' E 114°08'0 0.0
2014-Dec-16 21:33N 22°20' E 114°08'0 0.0
2014-Dec-16 20:30N 22°20' E 114°08'0 0.0
2014-Dec-16 19:33N 22°20' E 114°08'0 0.0
2014-Dec-16 18:30N 22°20' E 114°08'0 0.0
2014-Dec-16 17:33N 22°20' E 114°08'0 0.0
2014-Dec-16 16:33N 22°20' E 114°08'2 2.0
2014-Dec-16 15:33N 22°19' E 114°06'12 9.1
2014-Dec-16 14:17N 22°09' E 114°13'6 8.1
2014-Dec-16 13:33N 22°09' E 114°20'1413.7
2014-Dec-16 12:33N 22°10' E 114°34'22212.4
2014-Dec-15 18:33N 22°27' E 118°34'1615.9
2014-Dec-15 17:33N 22°28' E 118°51'1616.0
2014-Dec-15 16:34N 22°29' E 119°09'1615.6
2014-Dec-15 15:33N 22°30' E 119°25'1515.1
2014-Dec-15 14:34N 22°30' E 119°42'1313.0
2014-Dec-15 13:33N 22°31' E 119°56'1514.7
2014-Dec-15 12:33N 22°33' E 120°12'8 7.5
2014-Dec-15 11:33N 22°33' E 120°20'0 0.0
2014-Dec-15 10:31N 22°33' E 120°20'0 0.0
2014-Dec-15 08:31N 22°33' E 120°20'0 0.0
2014-Dec-15 07:31N 22°33' E 120°20'0 0.0
2014-Dec-15 06:25N 22°33' E 120°20'0 0.0
2014-Dec-15 05:25N 22°33' E 120°20'0 0.0
2014-Dec-15 04:13N 22°33' E 120°20'0 0.0
2014-Dec-15 01:25N 22°33' E 120°20'0 0.0
2014-Dec-15 00:31N 22°33' E 120°20'0 0.0
2014-Dec-14 23:31N 22°33' E 120°20'0 0.0
2014-Dec-14 22:25N 22°33' E 120°20'0 0.0
2014-Dec-14 21:31N 22°33' E 120°20'0 0.0
2014-Dec-14 19:31N 22°33' E 120°20'0 0.0
2014-Dec-14 18:31N 22°33' E 120°20'0 0.1
2014-Dec-14 17:33N 22°33' E 120°20'7 6.8
2014-Dec-14 16:33N 22°30' E 120°13'1615.6
2014-Dec-14 15:33N 22°15' E 120°15'  
2014-Dec-11 14:33N 35°04' E 139°43'1312.8
2014-Dec-11 13:33N 35°17' E 139°45'1111.2
2014-Dec-11 12:33N 35°28' E 139°49'9 8.6
2014-Dec-11 11:32N 35°37' E 139°46'0 0.2
2014-Dec-11 10:27N 35°37' E 139°47'0 0.0
2014-Dec-11 09:33N 35°37' E 139°47'0 0.0
2014-Dec-11 08:15N 35°37' E 139°47'0 0.0
2014-Dec-11 07:30N 35°37' E 139°47'0 0.0
2014-Dec-11 06:33N 35°37' E 139°47'0 0.0
2014-Dec-11 05:33N 35°37' E 139°47'0 0.0
2014-Dec-11 04:30N 35°37' E 139°47'0 0.0
2014-Dec-11 03:18N 35°37' E 139°47'0 0.0
2014-Dec-11 02:24N 35°37' E 139°47'0 0.0
2014-Dec-11 01:27N 35°37' E 139°47'0 0.0
2014-Dec-11 00:33N 35°37' E 139°47'  
Track history (hours):
 
Tides and Currents Weather Stations Pressure Air Temp Water Temp Dewpoint Dewpoint Depression Visibility Wind Speed Wind Dir Waves Ship Positions

Ever Develop

Last reported at 2014-Dec-18 21:30 UTC. Time now 2014-Dec-20 00:54 UTC.
Position N 23°42' E 118°30'.

Type: Ship (hazmat cat D). MMSI: 356391000.

Date/timePositionNaut miles runAvg speedWind from/ knotsBaromVisibWave heightAir tempDewpointWater temp
2014-Dec-18 21:30N 23°42' E 118°30'24212.5
2014-Dec-18 02:06N 22°34' E 114°17'1 2.3
2014-Dec-18 01:33N 22°34' E 114°16'0 0.0
2014-Dec-17 22:22N 22°34' E 114°16'0 0.0
2014-Dec-17 21:28N 22°34' E 114°16'0 0.0
2014-Dec-17 17:22N 22°34' E 114°16'0 0.0
2014-Dec-17 16:31N 22°34' E 114°16'14 2.4
2014-Dec-17 10:30N 22°26' E 114°28'1313.3
2014-Dec-17 09:33N 22°13' E 114°28'1312.7
2014-Dec-17 08:32N 22°07' E 114°15'1212.3
2014-Dec-17 07:34N 22°16' E 114°06'4 3.7
2014-Dec-17 06:33N 22°20' E 114°08'0 0.0
2014-Dec-17 05:33N 22°20' E 114°08'0 0.0
2014-Dec-17 04:33N 22°20' E 114°08'0 0.0
2014-Dec-17 03:33N 22°20' E 114°08'0 0.0
2014-Dec-17 02:30N 22°20' E 114°08'0 0.0
2014-Dec-17 01:33N 22°20' E 114°08'0 0.0
2014-Dec-17 00:33N 22°20' E 114°08'0 0.0
2014-Dec-16 23:30N 22°20' E 114°08'0 0.0
2014-Dec-16 22:24N 22°20' E 114°08'0 0.0
2014-Dec-16 21:33N 22°20' E 114°08'0 0.0
2014-Dec-16 20:30N 22°20' E 114°08'0 0.0
2014-Dec-16 19:33N 22°20' E 114°08'0 0.0
2014-Dec-16 18:30N 22°20' E 114°08'0 0.0
2014-Dec-16 17:33N 22°20' E 114°08'0 0.0
2014-Dec-16 16:33N 22°20' E 114°08'2 2.0
2014-Dec-16 15:33N 22°19' E 114°06'12 9.1
2014-Dec-16 14:17N 22°09' E 114°13'6 8.1
2014-Dec-16 13:33N 22°09' E 114°20'1413.7
2014-Dec-16 12:33N 22°10' E 114°34'22212.4
2014-Dec-15 18:33N 22°27' E 118°34'1615.9
2014-Dec-15 17:33N 22°28' E 118°51'1616.0
2014-Dec-15 16:34N 22°29' E 119°09'1615.6
2014-Dec-15 15:33N 22°30' E 119°25'1515.1
2014-Dec-15 14:34N 22°30' E 119°42'1313.0
2014-Dec-15 13:33N 22°31' E 119°56'1514.7
2014-Dec-15 12:33N 22°33' E 120°12'8 7.5
2014-Dec-15 11:33N 22°33' E 120°20'0 0.0
2014-Dec-15 10:31N 22°33' E 120°20'0 0.0
2014-Dec-15 08:31N 22°33' E 120°20'0 0.0
2014-Dec-15 07:31N 22°33' E 120°20'0 0.0
2014-Dec-15 06:25N 22°33' E 120°20'0 0.0
2014-Dec-15 05:25N 22°33' E 120°20'0 0.0
2014-Dec-15 04:13N 22°33' E 120°20'0 0.0
2014-Dec-15 01:25N 22°33' E 120°20'0 0.0
2014-Dec-15 00:31N 22°33' E 120°20'0 0.0
2014-Dec-14 23:31N 22°33' E 120°20'0 0.0
2014-Dec-14 22:25N 22°33' E 120°20'0 0.0
2014-Dec-14 21:31N 22°33' E 120°20'0 0.0
2014-Dec-14 19:31N 22°33' E 120°20'0 0.0
2014-Dec-14 18:31N 22°33' E 120°20'0 0.1
2014-Dec-14 17:33N 22°33' E 120°20'7 6.8
2014-Dec-14 16:33N 22°30' E 120°13'1615.6
2014-Dec-14 15:33N 22°15' E 120°15'  
2014-Dec-11 14:33N 35°04' E 139°43'1312.8
2014-Dec-11 13:33N 35°17' E 139°45'1111.2
2014-Dec-11 12:33N 35°28' E 139°49'9 8.6
2014-Dec-11 11:32N 35°37' E 139°46'0 0.2
2014-Dec-11 10:27N 35°37' E 139°47'0 0.0
2014-Dec-11 09:33N 35°37' E 139°47'0 0.0
2014-Dec-11 08:15N 35°37' E 139°47'0 0.0
2014-Dec-11 07:30N 35°37' E 139°47'0 0.0
2014-Dec-11 06:33N 35°37' E 139°47'0 0.0
2014-Dec-11 05:33N 35°37' E 139°47'0 0.0
2014-Dec-11 04:30N 35°37' E 139°47'0 0.0
2014-Dec-11 03:18N 35°37' E 139°47'0 0.0
2014-Dec-11 02:24N 35°37' E 139°47'0 0.0
2014-Dec-11 01:27N 35°37' E 139°47'0 0.0
2014-Dec-11 00:33N 35°37' E 139°47'  

Dump ship's entire track history